CheckWX is a tool to help pilots better visualize weather data.  It is not intended as a substitute for an official pre-flight weather briefing.

11:02:12 UTC

SKCL TAF
Alfonso Bonilla Aragon International Airport
Cali, Colombia
TAF SKCL 240430Z 2406/2506 04004KT 9999 SCT015 BKN080 TEMPO 2409/2414 3000 BR BECMG 2418/2419 32012KT TEMPO 2420/2424 4000 TSRA SCT017CB BKN100 TX31/2419Z TN20/2410Z

Feb-24@
06:00 UTC

Feb-24 @ 06:00 UTC

Feb-24@
18:00 UTC

Feb-24 @ 18:00 UTC

TAF SKCL 240430Z 2406/2506 04004KT 9999 SCT015 BKN080
Wind
  • 040° at 4 KTS
Cloud Levels
  • Scattered at 1,500' AGL
  • Broken at 8,000' AGL

Feb-24@
09:00 UTC

Feb-24 @ 09:00 UTC

Feb-24@
14:00 UTC

Feb-24 @ 14:00 UTC

TEMPO 2409/2414 3000 BR

Temporary

Temporary Changes expected for less than half the time period

Conditions
Mist

Feb-24@
18:00 UTC

Feb-24 @ 18:00 UTC

Feb-25@
06:00 UTC

Feb-25 @ 06:00 UTC

BECMG 2418/2419 32012KT

Becoming

Becoming Conditions expected by Mon, Feb 24, 2020 @ 19:00 UTC

Wind
  • 320° at 12 KTS
Cloud Levels
  • Scattered at 1,500' AGL
  • Broken at 8,000' AGL

Feb-24@
20:00 UTC

Feb-24 @ 20:00 UTC

Feb-25@
00:00 UTC

Feb-25 @ 00:00 UTC

TEMPO 2420/2424 4000 TSRA SCT017CB BKN100 TX31/2419Z TN20/2410Z

Temporary

Temporary Changes expected for less than half the time period

Conditions
Thunderstorm, Rain
Cloud Levels
  • Scattered at 1,700' AGL
  • Broken at 10,000' AGL